Time;durP1;ratioP1;P1;durP2;ratioP2;P2;SDS_P1;SDS_P2;PMS_P1;PMS_P2;Temp;Humidity;BMP_temperature;BMP_pressure;BME280_temperature;BME280_humidity;BME280_pressure;Samples;Min_cycle;Max_cycle;Signal;HPM_P1;HPM_P2
2023/10/24 00:00:02;;;;;;;43.35;14.30;;;;;;;;;;1043928;28;20071;-66
2023/10/24 00:00:33;;;;;;;35.53;14.38;;;;;;;;;;1043020;28;20393;-66
2023/10/24 00:01:23;;;;;;;37.35;15.00;;;;;;;;;;1043299;28;20045;-64
2023/10/24 00:01:54;;;;;;;43.53;15.35;;;;;;;;;;1042985;28;20041;-64
2023/10/24 00:02:24;;;;;;;39.42;15.48;;;;;;;;;;1042617;28;20888;-65
2023/10/24 00:02:55;;;;;;;27.80;13.80;;;;;;;;;;1046068;28;20184;-66
2023/10/24 00:03:25;;;;;;;31.58;14.10;;;;;;;;;;1043928;28;20041;-65
2023/10/24 00:03:56;;;;;;;38.25;15.45;;;;;;;;;;1044674;28;20052;-65
2023/10/24 00:04:27;;;;;;;28.35;15.50;;;;;;;;;;1045395;28;20054;-67
2023/10/24 00:04:59;;;;;;;29.15;14.88;;;;;;;;;;1045849;28;20044;-65
2023/10/24 00:05:29;;;;;;;24.48;17.25;;;;;;;;;;1043432;28;20057;-65
2023/10/24 00:06:02;;;;;;;28.50;15.85;;;;;;;;;;1045185;28;20189;-66
2023/10/24 00:06:33;;;;;;;26.65;17.02;;;;;;;;;;1044427;28;20071;-65
2023/10/24 00:07:03;;;;;;;21.38;14.82;;;;;;;;;;1047853;28;20048;-66
2023/10/24 00:07:34;;;;;;;31.88;16.13;;;;;;;;;;1048567;28;20087;-66
2023/10/24 00:08:05;;;;;;;21.63;14.35;;;;;;;;;;1049955;28;20048;-66
2023/10/24 00:08:35;;;;;;;24.73;15.82;;;;;;;;;;1048441;28;20479;-67
2023/10/24 00:09:06;;;;;;;26.05;16.20;;;;;;;;;;1045648;28;20405;-66
2023/10/24 00:09:36;;;;;;;29.52;16.50;;;;;;;;;;1043177;28;20048;-65
2023/10/24 00:10:07;;;;;;;20.83;15.63;;;;;;;;;;1045235;28;20131;-66
2023/10/24 00:10:38;;;;;;;23.60;15.68;;;;;;;;;;1043731;28;20114;-65
2023/10/24 00:11:08;;;;;;;28.92;17.52;;;;;;;;;;1043930;28;20044;-66
2023/10/24 00:11:39;;;;;;;32.88;17.05;;;;;;;;;;1042906;28;20052;-66
2023/10/24 00:12:11;;;;;;;32.42;17.15;;;;;;;;;;1045175;28;20040;-66
2023/10/24 00:12:41;;;;;;;51.72;17.80;;;;;;;;;;1043910;28;20048;-65
2023/10/24 00:13:12;;;;;;;57.17;17.98;;;;;;;;;;1045162;28;20051;-65
2023/10/24 00:13:42;;;;;;;40.38;18.60;;;;;;;;;;1044423;28;20058;-65
2023/10/24 00:14:13;;;;;;;38.83;18.35;;;;;;;;;;1043255;28;20087;-64
2023/10/24 00:14:43;;;;;;;37.13;17.35;;;;;;;;;;1044925;28;23754;-66
2023/10/24 00:15:14;;;;;;;38.97;18.85;;;;;;;;;;1042564;28;20052;-65
2023/10/24 00:15:44;;;;;;;32.88;19.48;;;;;;;;;;1043335;28;20103;-67
2023/10/24 00:16:15;;;;;;;25.92;18.08;;;;;;;;;;1043191;28;20139;-66
2023/10/24 00:16:46;;;;;;;30.95;19.35;;;;;;;;;;1045306;28;20053;-66
2023/10/24 00:17:16;;;;;;;25.92;19.92;;;;;;;;;;1042767;28;20065;-67
2023/10/24 00:17:47;;;;;;;28.13;20.63;;;;;;;;;;1044626;28;20143;-66
2023/10/24 00:18:17;;;;;;;27.05;19.17;;;;;;;;;;1044051;28;20067;-65
2023/10/24 00:18:48;;;;;;;37.65;20.75;;;;;;;;;;1044856;28;20053;-65
2023/10/24 00:19:18;;;;;;;40.22;20.70;;;;;;;;;;1043777;28;20048;-64
2023/10/24 00:19:49;;;;;;;31.10;19.85;;;;;;;;;;1045251;28;20037;-65
2023/10/24 00:20:19;;;;;;;31.63;18.60;;;;;;;;;;1044629;28;20052;-67
2023/10/24 00:20:50;;;;;;;41.58;20.23;;;;;;;;;;1045626;28;20542;-67
2023/10/24 00:21:20;;;;;;;42.33;18.90;;;;;;;;;;1043729;28;20823;-65
2023/10/24 00:21:51;;;;;;;53.40;21.20;;;;;;;;;;1044665;28;20073;-66
2023/10/24 00:22:21;;;;;;;30.38;20.40;;;;;;;;;;1044918;28;20059;-66
2023/10/24 00:22:52;;;;;;;31.10;20.52;;;;;;;;;;1044085;28;20058;-65
2023/10/24 00:23:22;;;;;;;40.60;21.38;;;;;;;;;;1043607;28;20056;-68
2023/10/24 00:23:53;;;;;;;31.92;21.40;;;;;;;;;;1046203;28;20052;-66
2023/10/24 00:24:25;;;;;;;39.40;21.90;;;;;;;;;;1045495;28;21719;-65
2023/10/24 00:24:56;;;;;;;31.60;22.40;;;;;;;;;;1045199;28;20476;-67
2023/10/24 00:25:26;;;;;;;28.42;20.95;;;;;;;;;;1043730;28;20096;-65
2023/10/24 00:25:57;;;;;;;32.63;21.08;;;;;;;;;;1043491;28;20056;-67
2023/10/24 00:26:28;;;;;;;30.30;21.33;;;;;;;;;;1045598;28;20070;-65
2023/10/24 00:26:58;;;;;;;39.53;22.08;;;;;;;;;;1044499;28;20064;-67
2023/10/24 00:27:29;;;;;;;36.22;22.08;;;;;;;;;;1044830;28;20063;-67
2023/10/24 00:28:00;;;;;;;44.88;23.42;;;;;;;;;;1044346;28;20877;-64
2023/10/24 00:28:30;;;;;;;35.65;21.73;;;;;;;;;;1044703;28;20074;-65
2023/10/24 00:29:01;;;;;;;30.98;22.33;;;;;;;;;;1045063;28;20121;-67
2023/10/24 00:29:31;;;;;;;27.02;20.52;;;;;;;;;;1044270;28;20117;-65
2023/10/24 00:30:02;;;;;;;29.63;20.10;;;;;;;;;;1044732;28;20053;-65
2023/10/24 00:30:34;;;;;;;31.40;20.25;;;;;;;;;;1042968;28;20059;-64
2023/10/24 00:31:07;;;;;;;32.20;20.75;;;;;;;;;;1045281;28;20052;-67
2023/10/24 00:31:37;;;;;;;33.38;20.50;;;;;;;;;;1044014;28;20052;-65
2023/10/24 00:32:08;;;;;;;29.88;21.05;;;;;;;;;;1043230;28;20068;-67
2023/10/24 00:32:38;;;;;;;27.80;20.08;;;;;;;;;;1044796;28;20056;-67
2023/10/24 00:33:09;;;;;;;34.13;21.02;;;;;;;;;;1043333;28;20056;-65
2023/10/24 00:33:39;;;;;;;30.63;20.85;;;;;;;;;;1043235;28;20056;-66
2023/10/24 00:34:12;;;;;;;28.45;18.90;;;;;;;;;;1044019;28;20393;-66
2023/10/24 00:34:42;;;;;;;27.80;20.25;;;;;;;;;;1040629;28;20049;-66
2023/10/24 00:35:13;;;;;;;28.52;20.52;;;;;;;;;;1038922;28;20045;-65
2023/10/24 00:35:43;;;;;;;28.85;20.77;;;;;;;;;;1039340;28;20049;-65
2023/10/24 00:36:14;;;;;;;30.88;21.85;;;;;;;;;;1039492;28;20052;-66
2023/10/24 00:36:46;;;;;;;27.83;20.35;;;;;;;;;;1040703;28;20052;-65
2023/10/24 00:37:16;;;;;;;29.88;20.88;;;;;;;;;;1040364;28;20049;-67
2023/10/24 00:37:47;;;;;;;28.90;20.48;;;;;;;;;;1039768;28;20056;-67
2023/10/24 00:38:17;;;;;;;26.27;19.77;;;;;;;;;;1039448;28;20067;-65
2023/10/24 00:38:48;;;;;;;27.98;20.70;;;;;;;;;;1040948;28;20060;-66
2023/10/24 00:39:18;;;;;;;29.30;21.58;;;;;;;;;;1038661;28;20060;-65
2023/10/24 00:39:49;;;;;;;25.88;19.95;;;;;;;;;;1040081;28;20041;-67
2023/10/24 00:40:20;;;;;;;28.42;19.73;;;;;;;;;;1041966;28;20053;-67
2023/10/24 00:40:50;;;;;;;26.77;20.30;;;;;;;;;;1043320;28;20048;-67
2023/10/24 00:41:20;;;;;;;30.60;21.20;;;;;;;;;;1044929;28;20568;-65
2023/10/24 00:41:51;;;;;;;29.60;21.40;;;;;;;;;;1043995;28;20102;-67
2023/10/24 00:42:21;;;;;;;33.22;22.15;;;;;;;;;;1044644;28;20048;-66
2023/10/24 00:42:52;;;;;;;26.50;20.92;;;;;;;;;;1043199;28;20520;-64
2023/10/24 00:43:22;;;;;;;26.98;20.27;;;;;;;;;;1044254;28;20098;-65
2023/10/24 00:43:53;;;;;;;28.95;19.98;;;;;;;;;;1044398;28;20053;-67
2023/10/24 00:44:24;;;;;;;28.55;19.90;;;;;;;;;;1044670;28;20045;-65
2023/10/24 00:44:55;;;;;;;30.58;19.38;;;;;;;;;;1044158;28;20195;-67
2023/10/24 00:45:25;;;;;;;25.45;19.25;;;;;;;;;;1041827;28;20049;-64
2023/10/24 00:45:56;;;;;;;26.98;19.38;;;;;;;;;;1044473;28;20049;-65
2023/10/24 00:46:26;;;;;;;25.60;19.95;;;;;;;;;;1042260;28;20052;-65
2023/10/24 00:46:57;;;;;;;25.95;20.17;;;;;;;;;;1044737;28;20040;-67
2023/10/24 00:47:28;;;;;;;24.48;19.05;;;;;;;;;;1043072;28;20059;-66
2023/10/24 00:47:58;;;;;;;27.75;20.42;;;;;;;;;;1044110;28;20040;-65
2023/10/24 00:48:30;;;;;;;29.35;18.80;;;;;;;;;;1043156;28;20230;-65
2023/10/24 00:49:02;;;;;;;24.42;19.38;;;;;;;;;;1042517;28;20049;-66
2023/10/24 00:49:32;;;;;;;23.40;18.88;;;;;;;;;;1039822;28;20064;-64
2023/10/24 00:50:03;;;;;;;23.05;17.92;;;;;;;;;;1042451;28;20045;-65
2023/10/24 00:50:34;;;;;;;25.15;19.10;;;;;;;;;;1041202;28;20045;-67
2023/10/24 00:51:04;;;;;;;26.75;18.55;;;;;;;;;;1040344;28;20055;-65
2023/10/24 00:51:35;;;;;;;27.65;20.15;;;;;;;;;;1040043;28;20084;-67
2023/10/24 00:52:06;;;;;;;28.90;19.02;;;;;;;;;;1039757;28;20049;-67
2023/10/24 00:52:37;;;;;;;25.52;18.55;;;;;;;;;;1040487;28;20840;-66
2023/10/24 00:53:08;;;;;;;25.40;18.58;;;;;;;;;;1039367;28;20052;-65
2023/10/24 00:53:39;;;;;;;23.58;18.67;;;;;;;;;;1040828;28;20045;-65
2023/10/24 00:54:10;;;;;;;25.70;17.98;;;;;;;;;;1040390;28;20052;-65
2023/10/24 00:54:41;;;;;;;25.88;17.73;;;;;;;;;;1040780;28;20040;-66
2023/10/24 00:55:13;;;;;;;26.42;17.85;;;;;;;;;;1039683;28;20102;-66
2023/10/24 00:55:44;;;;;;;25.60;17.80;;;;;;;;;;1040767;28;20153;-66
2023/10/24 00:56:15;;;;;;;25.55;18.13;;;;;;;;;;1040466;28;20072;-66
2023/10/24 00:56:47;;;;;;;21.95;16.88;;;;;;;;;;1046945;28;20158;-67
2023/10/24 00:57:17;;;;;;;22.58;15.77;;;;;;;;;;1041789;28;20257;-67
2023/10/24 00:57:50;;;;;;;22.65;16.80;;;;;;;;;;1041254;28;20078;-65
2023/10/24 00:58:20;;;;;;;23.25;17.45;;;;;;;;;;1041562;28;20144;-67
2023/10/24 00:58:51;;;;;;;22.85;16.23;;;;;;;;;;1046089;28;20045;-67
2023/10/24 00:59:24;;;;;;;21.40;16.55;;;;;;;;;;1042952;28;20049;-66
2023/10/24 00:59:55;;;;;;;19.58;15.95;;;;;;;;;;1044862;28;20123;-64
2023/10/24 01:00:26;;;;;;;22.98;17.30;;;;;;;;;;1041625;28;20067;-66
2023/10/24 01:00:59;;;;;;;23.73;16.67;;;;;;;;;;1044970;28;20113;-64
2023/10/24 01:01:30;;;;;;;22.58;15.80;;;;;;;;;;1042552;28;20095;-64
2023/10/24 01:02:01;;;;;;;22.33;15.57;;;;;;;;;;1045148;28;20832;-65
2023/10/24 01:02:31;;;;;;;28.35;16.60;;;;;;;;;;1042873;28;21573;-65
2023/10/24 01:03:04;;;;;;;33.47;16.63;;;;;;;;;;1044527;28;20055;-66
2023/10/24 01:03:34;;;;;;;29.25;16.10;;;;;;;;;;1044730;28;20193;-66
2023/10/24 01:04:05;;;;;;;31.55;16.60;;;;;;;;;;1044685;28;20522;-66
2023/10/24 01:04:35;;;;;;;23.58;15.98;;;;;;;;;;1043339;28;20059;-65
2023/10/24 01:05:07;;;;;;;23.85;16.13;;;;;;;;;;1045002;28;20045;-65
2023/10/24 01:05:39;;;;;;;37.05;18.70;;;;;;;;;;1045669;28;20056;-65
2023/10/24 01:06:09;;;;;;;35.25;17.23;;;;;;;;;;1045304;28;20058;-66
2023/10/24 01:06:40;;;;;;;37.67;16.15;;;;;;;;;;1046018;28;20090;-66
2023/10/24 01:07:10;;;;;;;29.85;16.55;;;;;;;;;;1044522;28;20110;-65
2023/10/24 01:07:41;;;;;;;37.20;16.52;;;;;;;;;;1046573;28;20053;-67
2023/10/24 01:08:11;;;;;;;42.13;17.73;;;;;;;;;;1047125;28;20048;-66
2023/10/24 01:08:43;;;;;;;60.25;16.70;;;;;;;;;;1044122;28;20063;-67
2023/10/24 01:09:13;;;;;;;63.72;17.42;;;;;;;;;;1045750;28;20048;-66
2023/10/24 01:09:44;;;;;;;44.35;16.70;;;;;;;;;;1045240;28;20053;-67
2023/10/24 01:10:15;;;;;;;59.75;18.02;;;;;;;;;;1044041;28;20206;-66
2023/10/24 01:10:45;;;;;;;69.75;17.42;;;;;;;;;;1044132;28;20056;-66
2023/10/24 01:11:16;;;;;;;74.05;17.30;;;;;;;;;;1045776;28;20139;-67
2023/10/24 01:11:49;;;;;;;55.08;16.30;;;;;;;;;;1043648;28;20053;-67
2023/10/24 01:12:19;;;;;;;68.45;16.50;;;;;;;;;;1044973;28;20408;-67
2023/10/24 01:12:50;;;;;;;51.42;17.45;;;;;;;;;;1045932;28;20493;-66
2023/10/24 01:13:21;;;;;;;53.20;17.00;;;;;;;;;;1046318;28;20106;-67
2023/10/24 01:13:51;;;;;;;52.80;17.45;;;;;;;;;;1045714;28;20044;-65
2023/10/24 01:14:22;;;;;;;44.38;17.42;;;;;;;;;;1043423;28;20053;-66
2023/10/24 01:14:52;;;;;;;45.45;16.17;;;;;;;;;;1043981;28;20152;-65
2023/10/24 01:15:23;;;;;;;51.08;17.52;;;;;;;;;;1045466;28;20059;-66
2023/10/24 01:15:53;;;;;;;46.92;16.67;;;;;;;;;;1043762;28;20074;-65
2023/10/24 01:16:24;;;;;;;38.55;15.88;;;;;;;;;;1046068;28;20041;-65
2023/10/24 01:16:54;;;;;;;53.20;16.98;;;;;;;;;;1046771;28;20855;-67
2023/10/24 01:17:25;;;;;;;32.28;15.07;;;;;;;;;;1042781;28;20749;-65
2023/10/24 01:17:56;;;;;;;41.72;16.42;;;;;;;;;;1046194;28;20056;-65
2023/10/24 01:18:26;;;;;;;29.17;15.02;;;;;;;;;;1045539;28;20047;-66
2023/10/24 01:18:57;;;;;;;31.60;16.02;;;;;;;;;;1046469;28;20071;-65
2023/10/24 01:19:27;;;;;;;24.25;14.65;;;;;;;;;;1043930;28;20055;-67
2023/10/24 01:19:58;;;;;;;31.67;14.77;;;;;;;;;;1045843;28;20045;-67
2023/10/24 01:20:29;;;;;;;22.13;15.10;;;;;;;;;;1043953;28;20044;-65
2023/10/24 01:20:59;;;;;;;23.20;14.52;;;;;;;;;;1046611;28;20047;-66
2023/10/24 01:21:30;;;;;;;29.38;15.10;;;;;;;;;;1044116;28;20048;-65
2023/10/24 01:22:00;;;;;;;28.15;14.40;;;;;;;;;;1044899;28;20045;-66
2023/10/24 01:22:31;;;;;;;21.60;14.35;;;;;;;;;;1045602;28;20044;-64
2023/10/24 01:23:02;;;;;;;24.98;15.27;;;;;;;;;;1045253;28;20732;-66
2023/10/24 01:23:32;;;;;;;18.95;14.05;;;;;;;;;;1043665;28;20057;-65
2023/10/24 01:24:03;;;;;;;31.63;16.45;;;;;;;;;;1045214;28;20045;-67
2023/10/24 01:24:34;;;;;;;35.92;15.70;;;;;;;;;;1045977;28;20148;-67
2023/10/24 01:25:12;;;;;;;21.30;14.77;;;;;;;;;;1045871;28;20075;-66
2023/10/24 01:25:42;;;;;;;21.33;15.15;;;;;;;;;;1040758;28;20049;-67
2023/10/24 01:26:14;;;;;;;22.95;14.90;;;;;;;;;;1042045;28;20122;-66
2023/10/24 01:26:44;;;;;;;26.23;16.00;;;;;;;;;;1044587;28;20099;-66
2023/10/24 01:27:16;;;;;;;31.27;15.63;;;;;;;;;;1045146;28;20148;-66
2023/10/24 01:27:53;;;;;;;22.63;14.88;;;;;;;;;;1045128;28;20059;-66
2023/10/24 01:28:28;;;;;;;23.88;15.20;;;;;;;;;;1044364;28;20139;-65
2023/10/24 01:28:59;;;;;;;21.65;14.90;;;;;;;;;;1045469;28;20048;-67
2023/10/24 01:29:30;;;;;;;25.75;15.18;;;;;;;;;;1042738;28;20076;-66
2023/10/24 01:30:01;;;;;;;19.98;15.23;;;;;;;;;;1044107;28;20048;-66
2023/10/24 01:30:35;;;;;;;26.13;15.68;;;;;;;;;;1045001;28;20154;-65
2023/10/24 01:31:06;;;;;;;32.58;15.70;;;;;;;;;;1045210;28;20101;-67
2023/10/24 01:31:36;;;;;;;27.65;15.43;;;;;;;;;;1044360;28;20114;-66
2023/10/24 01:32:07;;;;;;;28.02;15.48;;;;;;;;;;1043077;28;20079;-66
2023/10/24 01:32:38;;;;;;;25.35;15.60;;;;;;;;;;1045171;28;20195;-67
2023/10/24 01:33:08;;;;;;;27.52;16.52;;;;;;;;;;1046072;28;20052;-67
2023/10/24 01:33:39;;;;;;;22.52;15.75;;;;;;;;;;1045273;28;20131;-65
2023/10/24 01:34:10;;;;;;;21.92;15.05;;;;;;;;;;1045995;28;20045;-66
2023/10/24 01:34:40;;;;;;;23.08;16.55;;;;;;;;;;1045917;28;20048;-65
2023/10/24 01:35:11;;;;;;;22.02;15.95;;;;;;;;;;1045195;28;20098;-67
2023/10/24 01:35:42;;;;;;;23.70;15.60;;;;;;;;;;1046309;28;20110;-65
2023/10/24 01:36:12;;;;;;;30.33;16.90;;;;;;;;;;1043700;28;20087;-67
2023/10/24 01:36:43;;;;;;;21.42;16.02;;;;;;;;;;1044660;28;20079;-65
2023/10/24 01:37:13;;;;;;;24.15;16.73;;;;;;;;;;1044659;28;20139;-64
2023/10/24 01:37:44;;;;;;;22.65;16.50;;;;;;;;;;1045241;28;20132;-65
2023/10/24 01:38:14;;;;;;;22.85;16.48;;;;;;;;;;1044993;28;20064;-66
2023/10/24 01:38:45;;;;;;;22.38;16.35;;;;;;;;;;1044848;28;20758;-67
2023/10/24 01:39:16;;;;;;;21.48;16.33;;;;;;;;;;1045774;28;20497;-66
2023/10/24 01:39:46;;;;;;;18.38;14.82;;;;;;;;;;1044213;28;20472;-64
2023/10/24 01:40:17;;;;;;;22.13;15.75;;;;;;;;;;1044135;28;20056;-67
2023/10/24 01:40:47;;;;;;;23.40;16.15;;;;;;;;;;1045721;28;20148;-67
2023/10/24 01:41:18;;;;;;;22.88;16.98;;;;;;;;;;1044075;28;20058;-67
2023/10/24 01:41:49;;;;;;;22.10;16.45;;;;;;;;;;1046023;28;20152;-65
2023/10/24 01:42:19;;;;;;;23.27;16.27;;;;;;;;;;1042848;28;20052;-64
2023/10/24 01:42:50;;;;;;;24.85;18.02;;;;;;;;;;1044469;28;20056;-65
2023/10/24 01:43:20;;;;;;;22.15;16.85;;;;;;;;;;1044511;28;20053;-67
2023/10/24 01:43:51;;;;;;;21.85;16.35;;;;;;;;;;1047010;28;20162;-67
2023/10/24 01:44:22;;;;;;;22.70;16.90;;;;;;;;;;1042888;28;20044;-64
2023/10/24 01:44:52;;;;;;;26.50;17.13;;;;;;;;;;1044192;28;20049;-66
2023/10/24 01:45:23;;;;;;;25.13;17.25;;;;;;;;;;1043435;28;20053;-67
2023/10/24 01:45:54;;;;;;;21.88;16.75;;;;;;;;;;1046098;28;20697;-66
2023/10/24 01:46:24;;;;;;;30.60;17.83;;;;;;;;;;1044668;28;20056;-65
2023/10/24 01:46:55;;;;;;;24.00;17.85;;;;;;;;;;1045682;28;20828;-67
2023/10/24 01:47:25;;;;;;;25.15;17.50;;;;;;;;;;1045236;28;20897;-67
2023/10/24 01:47:56;;;;;;;29.50;18.15;;;;;;;;;;1045480;28;20503;-65
2023/10/24 01:48:26;;;;;;;26.02;18.52;;;;;;;;;;1044871;28;20052;-67
2023/10/24 01:48:57;;;;;;;24.20;17.48;;;;;;;;;;1045744;28;20048;-66
2023/10/24 01:49:27;;;;;;;25.85;17.60;;;;;;;;;;1045231;28;20051;-65
2023/10/24 01:49:58;;;;;;;25.85;17.73;;;;;;;;;;1046325;28;20156;-68
2023/10/24 01:50:29;;;;;;;26.90;18.85;;;;;;;;;;1043705;28;20095;-66
2023/10/24 01:51:00;;;;;;;25.15;17.65;;;;;;;;;;1045913;28;20049;-65
2023/10/24 01:51:30;;;;;;;27.00;18.55;;;;;;;;;;1045590;28;20055;-66
2023/10/24 01:52:01;;;;;;;24.25;16.88;;;;;;;;;;1046081;28;20051;-67
2023/10/24 01:52:32;;;;;;;27.48;19.02;;;;;;;;;;1043760;28;20054;-66
2023/10/24 01:53:02;;;;;;;24.08;18.17;;;;;;;;;;1043951;28;20179;-65
2023/10/24 01:53:33;;;;;;;25.63;18.13;;;;;;;;;;1043882;28;20182;-67
2023/10/24 01:54:04;;;;;;;24.88;17.63;;;;;;;;;;1045297;28;20055;-67
2023/10/24 01:54:35;;;;;;;21.27;16.50;;;;;;;;;;1044023;28;20053;-67
2023/10/24 01:55:05;;;;;;;22.10;17.52;;;;;;;;;;1044397;28;20048;-65
2023/10/24 01:55:36;;;;;;;25.75;16.92;;;;;;;;;;1045198;28;20044;-66
2023/10/24 01:56:06;;;;;;;23.02;16.15;;;;;;;;;;1046471;28;20449;-65
2023/10/24 01:56:37;;;;;;;20.50;16.52;;;;;;;;;;1044261;28;20051;-67
2023/10/24 01:57:07;;;;;;;20.60;15.73;;;;;;;;;;1045135;28;20048;-66
2023/10/24 01:57:38;;;;;;;20.50;14.88;;;;;;;;;;1043131;28;20078;-66
2023/10/24 01:58:08;;;;;;;21.25;16.08;;;;;;;;;;1045209;28;20139;-66
2023/10/24 01:58:40;;;;;;;22.50;16.17;;;;;;;;;;1045752;28;20420;-67
2023/10/24 01:59:10;;;;;;;22.35;16.58;;;;;;;;;;1045882;28;20811;-67
2023/10/24 01:59:41;;;;;;;20.85;16.13;;;;;;;;;;1043813;28;20131;-65
2023/10/24 02:00:12;;;;;;;20.23;15.02;;;;;;;;;;1044690;28;20048;-66
2023/10/24 02:00:42;;;;;;;20.98;15.48;;;;;;;;;;1045152;28;20127;-65
2023/10/24 02:01:14;;;;;;;22.60;16.60;;;;;;;;;;1045387;28;20048;-66
2023/10/24 02:01:44;;;;;;;21.58;15.63;;;;;;;;;;1044524;28;20048;-65
2023/10/24 02:02:15;;;;;;;20.77;15.48;;;;;;;;;;1045322;28;20056;-66
2023/10/24 02:02:45;;;;;;;24.65;16.50;;;;;;;;;;1044468;28;20044;-66
2023/10/24 02:03:16;;;;;;;23.67;17.77;;;;;;;;;;1045317;28;20064;-68
2023/10/24 02:03:47;;;;;;;21.95;16.00;;;;;;;;;;1046642;28;20059;-66
2023/10/24 02:04:17;;;;;;;22.40;16.23;;;;;;;;;;1043244;28;20056;-65
2023/10/24 02:04:47;;;;;;;21.05;16.35;;;;;;;;;;1045838;28;20105;-68
2023/10/24 02:05:18;;;;;;;21.95;16.45;;;;;;;;;;1044798;28;21813;-65
2023/10/24 02:05:48;;;;;;;23.98;17.08;;;;;;;;;;1045996;28;20048;-66
2023/10/24 02:06:19;;;;;;;23.17;17.30;;;;;;;;;;1044522;28;20781;-66
2023/10/24 02:06:50;;;;;;;23.27;18.27;;;;;;;;;;1045496;28;20075;-65
2023/10/24 02:07:20;;;;;;;27.23;19.65;;;;;;;;;;1044250;28;20167;-66
2023/10/24 02:07:51;;;;;;;22.00;18.20;;;;;;;;;;1046927;28;20048;-67
2023/10/24 02:08:21;;;;;;;28.35;19.85;;;;;;;;;;1044628;28;20703;-66
2023/10/24 02:08:52;;;;;;;25.27;18.40;;;;;;;;;;1045484;28;20086;-66
2023/10/24 02:09:22;;;;;;;27.50;19.15;;;;;;;;;;1044356;28;20101;-65
2023/10/24 02:09:53;;;;;;;27.13;19.05;;;;;;;;;;1043646;28;20206;-65
2023/10/24 02:10:24;;;;;;;23.90;17.83;;;;;;;;;;1044867;28;20179;-65
2023/10/24 02:10:55;;;;;;;24.48;17.70;;;;;;;;;;1044767;28;20107;-65
2023/10/24 02:11:25;;;;;;;23.75;16.58;;;;;;;;;;1042998;28;20051;-67
2023/10/24 02:11:59;;;;;;;25.27;17.58;;;;;;;;;;1042969;28;20048;-67
2023/10/24 02:12:29;;;;;;;24.17;16.65;;;;;;;;;;1044901;28;20048;-67
2023/10/24 02:12:59;;;;;;;25.98;17.38;;;;;;;;;;1043697;28;20076;-66
2023/10/24 02:13:30;;;;;;;25.40;18.33;;;;;;;;;;1044838;28;20068;-65
2023/10/24 02:14:00;;;;;;;25.70;18.10;;;;;;;;;;1045286;28;20091;-67
2023/10/24 02:14:31;;;;;;;26.63;18.73;;;;;;;;;;1044659;28;20041;-67
2023/10/24 02:15:04;;;;;;;26.20;18.05;;;;;;;;;;1045606;28;20430;-67
2023/10/24 02:15:36;;;;;;;25.55;17.95;;;;;;;;;;1044286;28;20145;-67
2023/10/24 02:16:06;;;;;;;26.98;17.60;;;;;;;;;;1044634;28;20083;-65
2023/10/24 02:16:37;;;;;;;25.05;18.17;;;;;;;;;;1045410;28;20083;-67
2023/10/24 02:17:07;;;;;;;28.15;19.58;;;;;;;;;;1045909;28;20106;-67
2023/10/24 02:17:38;;;;;;;27.50;19.05;;;;;;;;;;1044631;28;20071;-65
2023/10/24 02:18:08;;;;;;;33.92;19.90;;;;;;;;;;1046107;28;20649;-66
2023/10/24 02:18:39;;;;;;;26.33;18.45;;;;;;;;;;1043911;28;20179;-66
2023/10/24 02:19:10;;;;;;;28.27;18.88;;;;;;;;;;1044499;28;20056;-65
2023/10/24 02:19:40;;;;;;;25.10;18.23;;;;;;;;;;1045601;28;20052;-67
2023/10/24 02:20:11;;;;;;;28.52;19.92;;;;;;;;;;1045428;28;20185;-67
2023/10/24 02:20:41;;;;;;;24.17;18.38;;;;;;;;;;1045448;28;20063;-66
2023/10/24 02:21:12;;;;;;;24.98;18.17;;;;;;;;;;1045625;28;20098;-66
2023/10/24 02:21:42;;;;;;;22.85;17.88;;;;;;;;;;1045457;28;20052;-67
2023/10/24 02:22:13;;;;;;;25.60;19.20;;;;;;;;;;1046032;28;20056;-66
2023/10/24 02:22:48;;;;;;;27.45;19.75;;;;;;;;;;1044857;28;20156;-66
2023/10/24 02:23:19;;;;;;;25.00;18.52;;;;;;;;;;1045225;28;20061;-66
2023/10/24 02:23:49;;;;;;;25.05;19.05;;;;;;;;;;1045881;28;20048;-66
2023/10/24 02:24:20;;;;;;;27.55;18.92;;;;;;;;;;1045124;28;20053;-66
2023/10/24 02:24:51;;;;;;;24.83;18.38;;;;;;;;;;1044149;28;20067;-67
2023/10/24 02:25:22;;;;;;;25.13;18.60;;;;;;;;;;1043530;28;20055;-66
2023/10/24 02:25:52;;;;;;;29.70;19.88;;;;;;;;;;1046431;28;20063;-67
2023/10/24 02:26:23;;;;;;;24.40;18.95;;;;;;;;;;1044940;28;20044;-66
2023/10/24 02:26:53;;;;;;;26.63;19.00;;;;;;;;;;1045443;28;20146;-65
2023/10/24 02:27:24;;;;;;;24.02;18.42;;;;;;;;;;1045029;28;20054;-66
2023/10/24 02:27:55;;;;;;;26.13;18.58;;;;;;;;;;1046307;28;20049;-66
2023/10/24 02:28:26;;;;;;;23.80;17.73;;;;;;;;;;1044809;28;20035;-68
2023/10/24 02:28:56;;;;;;;23.42;18.20;;;;;;;;;;1045134;28;20045;-66
2023/10/24 02:29:27;;;;;;;23.23;17.50;;;;;;;;;;1045389;28;20055;-65
2023/10/24 02:29:58;;;;;;;28.58;18.80;;;;;;;;;;1046386;28;20058;-66
2023/10/24 02:30:28;;;;;;;24.33;18.17;;;;;;;;;;1043144;28;20052;-67
2023/10/24 02:31:02;;;;;;;22.02;17.67;;;;;;;;;;1045239;28;20049;-66
2023/10/24 02:31:33;;;;;;;23.00;17.30;;;;;;;;;;1045109;28;20052;-65
2023/10/24 02:32:03;;;;;;;23.67;16.92;;;;;;;;;;1046011;28;20056;-65
2023/10/24 02:32:34;;;;;;;25.42;17.50;;;;;;;;;;1044947;28;20177;-65
2023/10/24 02:33:05;;;;;;;23.17;16.73;;;;;;;;;;1045747;28;20072;-65
2023/10/24 02:33:35;;;;;;;23.48;16.95;;;;;;;;;;1046398;28;20055;-65
2023/10/24 02:34:06;;;;;;;27.70;17.60;;;;;;;;;;1044756;28;20500;-65
2023/10/24 02:34:36;;;;;;;22.50;16.92;;;;;;;;;;1043866;28;20068;-67
2023/10/24 02:35:07;;;;;;;22.20;15.88;;;;;;;;;;1046052;28;20068;-67
2023/10/24 02:35:38;;;;;;;23.10;16.85;;;;;;;;;;1045385;28;20794;-65
2023/10/24 02:36:09;;;;;;;21.95;16.77;;;;;;;;;;1045516;28;20106;-65
2023/10/24 02:36:40;;;;;;;23.65;15.88;;;;;;;;;;1044153;28;20048;-65
2023/10/24 02:37:10;;;;;;;21.88;16.42;;;;;;;;;;1045596;28;20052;-67
2023/10/24 02:37:41;;;;;;;24.67;16.20;;;;;;;;;;1044319;28;20071;-67
2023/10/24 02:38:11;;;;;;;26.48;16.63;;;;;;;;;;1045233;28;20528;-67
2023/10/24 02:38:42;;;;;;;26.20;17.55;;;;;;;;;;1043687;28;20473;-67
2023/10/24 02:39:13;;;;;;;24.23;16.95;;;;;;;;;;1044729;28;20498;-66
2023/10/24 02:39:44;;;;;;;24.88;16.90;;;;;;;;;;1044583;28;20409;-64
2023/10/24 02:40:15;;;;;;;24.75;17.30;;;;;;;;;;1044424;28;20413;-64
2023/10/24 02:40:52;;;;;;;25.23;17.35;;;;;;;;;;1044005;28;20064;-65
2023/10/24 02:41:23;;;;;;;24.13;16.73;;;;;;;;;;1046151;28;20890;-66
2023/10/24 02:41:53;;;;;;;21.85;15.90;;;;;;;;;;1044717;28;20053;-65
2023/10/24 02:42:24;;;;;;;24.05;17.02;;;;;;;;;;1044112;28;20068;-65
2023/10/24 02:42:54;;;;;;;23.40;16.77;;;;;;;;;;1044149;28;20056;-66
2023/10/24 02:43:26;;;;;;;27.90;17.35;;;;;;;;;;1044912;28;20711;-67
2023/10/24 02:43:56;;;;;;;24.70;17.80;;;;;;;;;;1045872;28;20082;-67
2023/10/24 02:44:27;;;;;;;26.23;17.50;;;;;;;;;;1044610;28;20106;-65
2023/10/24 02:44:58;;;;;;;23.73;17.45;;;;;;;;;;1043509;28;20426;-67
2023/10/24 02:45:29;;;;;;;21.80;16.17;;;;;;;;;;1043611;28;20090;-65
2023/10/24 02:46:03;;;;;;;26.65;17.60;;;;;;;;;;1045406;28;20114;-67
2023/10/24 02:46:33;;;;;;;27.75;17.73;;;;;;;;;;1044110;28;20048;-66
2023/10/24 02:47:04;;;;;;;24.15;17.77;;;;;;;;;;1045401;28;20044;-66
2023/10/24 02:47:34;;;;;;;28.48;19.10;;;;;;;;;;1043927;28;20072;-68
2023/10/24 02:48:05;;;;;;;30.10;16.85;;;;;;;;;;1045298;28;20079;-65
2023/10/24 02:48:35;;;;;;;30.20;17.90;;;;;;;;;;1043529;28;20550;-65
2023/10/24 02:49:06;;;;;;;23.55;17.20;;;;;;;;;;1043620;28;23824;-67
2023/10/24 02:49:36;;;;;;;25.15;17.80;;;;;;;;;;1044109;28;20147;-66
2023/10/24 02:50:07;;;;;;;26.45;17.75;;;;;;;;;;1045518;28;20045;-65
2023/10/24 02:50:38;;;;;;;25.92;17.77;;;;;;;;;;1043760;28;20110;-67
2023/10/24 02:51:08;;;;;;;25.20;18.60;;;;;;;;;;1045160;28;20063;-66
2023/10/24 02:51:39;;;;;;;30.38;17.13;;;;;;;;;;1044998;28;20426;-66
2023/10/24 02:52:10;;;;;;;26.70;18.30;;;;;;;;;;1043391;28;20095;-66
2023/10/24 02:52:40;;;;;;;23.90;17.38;;;;;;;;;;1042859;28;20052;-65
2023/10/24 02:53:11;;;;;;;23.70;16.77;;;;;;;;;;1043309;28;20052;-67
2023/10/24 02:53:41;;;;;;;24.50;16.38;;;;;;;;;;1043466;28;20044;-66
2023/10/24 02:54:11;;;;;;;27.17;16.70;;;;;;;;;;1043103;28;20048;-66
2023/10/24 02:54:42;;;;;;;21.65;16.30;;;;;;;;;;1045410;28;20102;-67
2023/10/24 02:55:12;;;;;;;22.52;16.88;;;;;;;;;;1044217;28;20477;-65
2023/10/24 02:55:43;;;;;;;21.17;15.43;;;;;;;;;;1046401;28;20086;-66
2023/10/24 02:56:14;;;;;;;23.20;15.93;;;;;;;;;;1044104;28;20477;-66
2023/10/24 02:56:45;;;;;;;21.95;15.85;;;;;;;;;;1045162;28;20139;-65
2023/10/24 02:57:16;;;;;;;22.08;15.75;;;;;;;;;;1043928;28;20072;-66
2023/10/24 02:57:46;;;;;;;22.02;15.63;;;;;;;;;;1046155;28;20052;-65
2023/10/24 02:58:17;;;;;;;22.98;15.05;;;;;;;;;;1045283;28;20392;-67
2023/10/24 02:58:48;;;;;;;20.73;14.40;;;;;;;;;;1046766;28;20056;-67
2023/10/24 02:59:18;;;;;;;23.42;16.90;;;;;;;;;;1045748;28;20167;-66